Time;durP1;ratioP1;P1;durP2;ratioP2;P2;SDS_P1;SDS_P2;PMS_P1;PMS_P2;Temp;Humidity;BMP_temperature;BMP_pressure;BME280_temperature;BME280_humidity;BME280_pressure;Samples;Min_cycle;Max_cycle;Signal;HPM_P1;HPM_P2
2023/03/22 17:49:13;;;;;;;24.25;14.27;;;11.00;99.90;;;;;;5108906;27;20319;-56
2023/03/22 17:51:39;;;;;;;16.02;9.10;;;11.00;99.90;;;;;;5110247;28;20027;-59
2023/03/22 17:54:05;;;;;;;10.75;6.75;;;11.00;99.90;;;;;;5109044;28;20031;-60
2023/03/22 17:56:30;;;;;;;12.35;7.10;;;11.10;99.90;;;;;;5106688;28;20114;-58
2023/03/22 17:58:56;;;;;;;12.88;6.70;;;11.20;99.90;;;;;;5107228;28;20023;-60
2023/03/22 18:01:22;;;;;;;13.68;6.85;;;11.30;99.90;;;;;;5106423;28;20069;-60
2023/03/22 18:03:48;;;;;;;17.27;9.90;;;11.30;99.90;;;;;;5114278;28;20019;-61
2023/03/22 18:06:14;;;;;;;13.38;7.28;;;11.30;99.90;;;;;;5111776;28;20488;-60
2023/03/22 18:08:40;;;;;;;15.35;8.32;;;11.40;99.90;;;;;;5105607;28;20063;-58
2023/03/22 18:11:06;;;;;;;18.23;9.77;;;11.40;99.90;;;;;;5107152;28;20052;-59
2023/03/22 18:13:34;;;;;;;11.80;6.78;;;11.50;99.90;;;;;;5106854;28;20035;-59
2023/03/22 18:16:00;;;;;;;10.88;6.03;;;11.50;99.90;;;;;;5107637;28;20023;-60
2023/03/22 18:18:29;;;;;;;9.57;6.50;;;11.50;99.90;;;;;;5106784;28;20023;-58
2023/03/22 18:21:05;;;;;;;12.68;6.30;;;11.50;99.90;;;;;;5107492;28;20435;-60
2023/03/22 18:23:32;;;;;;;9.07;5.95;;;11.60;99.90;;;;;;5107272;28;20065;-58
2023/03/22 18:25:58;;;;;;;11.88;7.00;;;11.60;99.90;;;;;;5108412;28;20103;-58
2023/03/22 18:28:24;;;;;;;10.90;6.10;;;11.60;99.90;;;;;;5122355;28;20036;-56
2023/03/22 18:30:50;;;;;;;10.30;6.20;;;11.60;99.90;;;;;;5111268;28;20031;-60
2023/03/22 18:33:16;;;;;;;13.10;6.22;;;11.60;99.90;;;;;;5106377;28;20099;-56
2023/03/22 18:35:41;;;;;;;8.50;5.53;;;11.60;99.90;;;;;;5106575;28;20115;-58
2023/03/22 18:38:08;;;;;;;8.27;5.60;;;11.60;99.90;;;;;;5105495;28;20013;-59
2023/03/22 18:40:35;;;;;;;8.35;5.22;;;11.50;99.90;;;;;;5108193;28;20032;-60
2023/03/22 18:43:01;;;;;;;9.52;6.55;;;11.40;99.90;;;;;;5111020;28;20503;-62
2023/03/22 18:45:27;;;;;;;11.10;6.65;;;11.40;99.90;;;;;;5104100;28;20024;-60
2023/03/22 18:47:52;;;;;;;13.25;5.60;;;11.30;99.90;;;;;;5108719;28;20369;-60
2023/03/22 18:50:18;;;;;;;15.50;10.20;;;11.30;99.90;;;;;;5116394;28;20697;-59
2023/03/22 18:52:44;;;;;;;12.68;8.55;;;11.30;99.90;;;;;;5124107;28;20038;-56
2023/03/22 18:55:10;;;;;;;14.10;8.20;;;11.30;99.90;;;;;;5112321;28;20028;-60
2023/03/22 18:57:37;;;;;;;11.48;7.20;;;11.30;99.90;;;;;;5108506;28;20470;-63
2023/03/22 19:00:05;;;;;;;11.75;6.82;;;11.30;99.90;;;;;;5096148;28;20034;-57
2023/03/22 19:02:32;;;;;;;13.82;8.73;;;11.30;99.90;;;;;;5091858;28;20027;-61
2023/03/22 19:04:59;;;;;;;15.15;8.80;;;11.30;99.90;;;;;;5092995;28;20034;-60
2023/03/22 19:07:26;;;;;;;16.00;8.30;;;11.20;99.90;;;;;;5093127;28;20032;-60
2023/03/22 19:09:54;;;;;;;24.45;16.58;;;11.20;99.90;;;;;;5090356;28;20020;-59
2023/03/22 19:12:21;;;;;;;23.35;15.57;;;11.30;99.90;;;;;;5091574;28;20054;-60
2023/03/22 19:14:47;;;;;;;18.90;10.85;;;11.20;99.90;;;;;;5093396;28;20016;-64
2023/03/22 19:17:13;;;;;;;16.05;10.48;;;11.20;99.90;;;;;;5092225;28;20358;-60
2023/03/22 19:19:39;;;;;;;20.92;12.82;;;11.20;99.90;;;;;;5092828;28;20032;-64
2023/03/22 19:22:05;;;;;;;14.63;10.00;;;11.20;99.90;;;;;;5092505;28;20039;-56
2023/03/22 19:24:31;;;;;;;23.05;13.93;;;11.20;99.90;;;;;;5092537;28;20384;-60
